sensor_id;sensor_type;location;lat;lon;timestamp;pressure;altitude;pressure_sealevel;temperature;humidity
80504;BME280;69825;51.190;6.808;2023-09-18T00:02:24;100422.81;;;28.47;48.04
80504;BME280;69825;51.190;6.808;2023-09-18T00:04:50;100425.56;;;28.47;48.19
80504;BME280;69825;51.190;6.808;2023-09-18T00:07:15;100414.47;;;28.47;48.31
80504;BME280;69825;51.190;6.808;2023-09-18T00:09:40;100416.41;;;28.47;48.29
80504;BME280;69825;51.190;6.808;2023-09-18T00:12:06;100410.00;;;28.46;48.19
80504;BME280;69825;51.190;6.808;2023-09-18T00:14:32;100399.19;;;28.45;48.09
80504;BME280;69825;51.190;6.808;2023-09-18T00:16:57;100401.69;;;28.46;48.34
80504;BME280;69825;51.190;6.808;2023-09-18T00:19:22;100404.47;;;28.46;48.11
80504;BME280;69825;51.190;6.808;2023-09-18T00:21:49;100400.84;;;28.46;48.31
80504;BME280;69825;51.190;6.808;2023-09-18T00:24:14;100381.06;;;28.37;48.38
80504;BME280;69825;51.190;6.808;2023-09-18T00:26:39;100383.88;;;28.42;48.03
80504;BME280;69825;51.190;6.808;2023-09-18T00:29:05;100373.63;;;28.43;48.56
80504;BME280;69825;51.190;6.808;2023-09-18T00:31:30;100368.66;;;28.45;48.33
80504;BME280;69825;51.190;6.808;2023-09-18T00:33:55;100366.72;;;28.45;48.12
80504;BME280;69825;51.190;6.808;2023-09-18T00:36:21;100362.53;;;28.43;48.07
80504;BME280;69825;51.190;6.808;2023-09-18T00:38:46;100358.31;;;28.40;48.31
80504;BME280;69825;51.190;6.808;2023-09-18T00:41:12;100353.31;;;28.37;48.33
80504;BME280;69825;51.190;6.808;2023-09-18T00:43:37;100348.84;;;28.36;48.34
80504;BME280;69825;51.190;6.808;2023-09-18T00:46:03;100348.25;;;28.34;48.47
80504;BME280;69825;51.190;6.808;2023-09-18T00:48:29;100349.75;;;28.42;48.11
80504;BME280;69825;51.190;6.808;2023-09-18T00:50:54;100350.59;;;28.42;48.27
80504;BME280;69825;51.190;6.808;2023-09-18T00:53:23;100350.00;;;28.40;48.53
80504;BME280;69825;51.190;6.808;2023-09-18T00:55:50;100333.28;;;28.35;48.26
80504;BME280;69825;51.190;6.808;2023-09-18T00:58:17;100329.38;;;28.31;48.26
80504;BME280;69825;51.190;6.808;2023-09-18T01:00:44;100311.81;;;28.25;48.54
80504;BME280;69825;51.190;6.808;2023-09-18T01:03:09;100337.50;;;28.38;48.10
80504;BME280;69825;51.190;6.808;2023-09-18T01:05:35;100328.88;;;28.39;48.28
80504;BME280;69825;51.190;6.808;2023-09-18T01:08:01;100324.97;;;28.35;48.18
80504;BME280;69825;51.190;6.808;2023-09-18T01:10:32;100323.88;;;28.36;48.20
80504;BME280;69825;51.190;6.808;2023-09-18T01:13:04;100328.06;;;28.39;48.09
80504;BME280;69825;51.190;6.808;2023-09-18T01:15:42;100315.16;;;28.27;48.17
80504;BME280;69825;51.190;6.808;2023-09-18T01:18:10;100330.56;;;28.40;48.13
80504;BME280;69825;51.190;6.808;2023-09-18T01:20:35;100321.34;;;28.35;48.36
80504;BME280;69825;51.190;6.808;2023-09-18T01:23:01;100326.41;;;28.38;48.11
80504;BME280;69825;51.190;6.808;2023-09-18T01:25:26;100313.88;;;28.35;48.47
80504;BME280;69825;51.190;6.808;2023-09-18T01:27:51;100314.97;;;28.34;48.20
80504;BME280;69825;51.190;6.808;2023-09-18T01:30:17;100303.84;;;28.34;48.44
80504;BME280;69825;51.190;6.808;2023-09-18T01:32:44;100307.72;;;28.33;48.47
80504;BME280;69825;51.190;6.808;2023-09-18T01:35:12;100299.41;;;28.33;48.25
80504;BME280;69825;51.190;6.808;2023-09-18T01:37:39;100300.25;;;28.34;48.44
80504;BME280;69825;51.190;6.808;2023-09-18T01:40:06;100301.09;;;28.34;48.40
80504;BME280;69825;51.190;6.808;2023-09-18T01:42:32;100296.06;;;28.31;48.57
80504;BME280;69825;51.190;6.808;2023-09-18T01:44:59;100274.34;;;28.23;48.21
80504;BME280;69825;51.190;6.808;2023-09-18T01:47:24;100269.31;;;28.20;48.22
80504;BME280;69825;51.190;6.808;2023-09-18T01:49:52;100288.31;;;28.33;48.14
80504;BME280;69825;51.190;6.808;2023-09-18T01:52:17;100286.63;;;28.32;48.22
80504;BME280;69825;51.190;6.808;2023-09-18T01:54:43;100286.63;;;28.32;48.24
80504;BME280;69825;51.190;6.808;2023-09-18T01:57:08;100238.59;;;28.05;48.42
80504;BME280;69825;51.190;6.808;2023-09-18T01:59:34;100254.53;;;28.14;48.17
80504;BME280;69825;51.190;6.808;2023-09-18T02:02:00;100273.78;;;28.26;48.09
80504;BME280;69825;51.190;6.808;2023-09-18T02:04:26;100280.53;;;28.30;48.54
80504;BME280;69825;51.190;6.808;2023-09-18T02:06:52;100280.53;;;28.30;48.37
80504;BME280;69825;51.190;6.808;2023-09-18T02:09:17;100276.66;;;28.31;48.22
80504;BME280;69825;51.190;6.808;2023-09-18T02:11:45;100271.09;;;28.31;48.22
80504;BME280;69825;51.190;6.808;2023-09-18T02:14:11;100276.66;;;28.31;48.38
80504;BME280;69825;51.190;6.808;2023-09-18T02:16:40;100266.91;;;28.28;48.35
80504;BME280;69825;51.190;6.808;2023-09-18T02:19:10;100263.03;;;28.29;48.38
80504;BME280;69825;51.190;6.808;2023-09-18T02:21:36;100258.56;;;28.28;48.45
80504;BME280;69825;51.190;6.808;2023-09-18T02:24:02;100256.63;;;28.29;48.40
80504;BME280;69825;51.190;6.808;2023-09-18T02:26:27;100223.75;;;28.16;48.31
80504;BME280;69825;51.190;6.808;2023-09-18T02:28:54;100237.47;;;28.27;48.37
80504;BME280;69825;51.190;6.808;2023-09-18T02:31:20;100231.06;;;28.27;48.53
80504;BME280;69825;51.190;6.808;2023-09-18T02:33:45;100230.25;;;28.26;48.30
80504;BME280;69825;51.190;6.808;2023-09-18T02:36:12;100265.22;;;28.27;48.38
80504;BME280;69825;51.190;6.808;2023-09-18T02:38:37;100265.75;;;28.24;48.46
80504;BME280;69825;51.190;6.808;2023-09-18T02:41:03;100273.78;;;28.26;48.35
80504;BME280;69825;51.190;6.808;2023-09-18T02:43:28;100260.50;;;28.28;48.28
80504;BME280;69825;51.190;6.808;2023-09-18T02:45:53;100244.91;;;28.22;48.33
80504;BME280;69825;51.190;6.808;2023-09-18T02:48:19;100241.03;;;28.23;48.51
80504;BME280;69825;51.190;6.808;2023-09-18T02:50:45;100226.38;;;28.27;48.24
80504;BME280;69825;51.190;6.808;2023-09-18T02:53:25;100224.69;;;28.26;48.32
80504;BME280;69825;51.190;6.808;2023-09-18T02:55:52;100215.28;;;28.27;48.43
80504;BME280;69825;51.190;6.808;2023-09-18T02:58:18;100213.34;;;28.28;48.39
80504;BME280;69825;51.190;6.808;2023-09-18T03:00:45;100194.97;;;28.22;48.65
80504;BME280;69825;51.190;6.808;2023-09-18T03:03:12;100208.03;;;28.26;48.22
80504;BME280;69825;51.190;6.808;2023-09-18T03:05:38;100201.66;;;28.26;48.35
80504;BME280;69825;51.190;6.808;2023-09-18T03:08:04;100186.94;;;28.25;48.50
80504;BME280;69825;51.190;6.808;2023-09-18T03:10:34;100157.66;;;28.13;48.49
80504;BME280;69825;51.190;6.808;2023-09-18T03:13:00;100169.47;;;28.25;48.32
80504;BME280;69825;51.190;6.808;2023-09-18T03:15:25;100175.84;;;28.25;48.26
80504;BME280;69825;51.190;6.808;2023-09-18T03:17:51;100179.75;;;28.24;48.41
80504;BME280;69825;51.190;6.808;2023-09-18T03:20:16;100187.78;;;28.26;48.35
80504;BME280;69825;51.190;6.808;2023-09-18T03:22:41;100150.41;;;28.07;48.30
80504;BME280;69825;51.190;6.808;2023-09-18T03:25:07;100167.50;;;28.25;48.18
80504;BME280;69825;51.190;6.808;2023-09-18T03:27:32;100156.63;;;28.19;48.29
80504;BME280;69825;51.190;6.808;2023-09-18T03:29:58;100150.06;;;28.25;48.22
80504;BME280;69825;51.190;6.808;2023-09-18T03:32:23;100127.44;;;28.11;48.36
80504;BME280;69825;51.190;6.808;2023-09-18T03:34:53;100137.41;;;28.12;48.32
80504;BME280;69825;51.190;6.808;2023-09-18T03:37:18;100137.28;;;28.24;48.29
80504;BME280;69825;51.190;6.808;2023-09-18T03:39:44;100126.19;;;28.24;48.11
80504;BME280;69825;51.190;6.808;2023-09-18T03:42:09;100121.47;;;28.24;48.16
80504;BME280;69825;51.190;6.808;2023-09-18T03:44:34;100131.16;;;28.22;48.42
80504;BME280;69825;51.190;6.808;2023-09-18T03:47:00;100137.75;;;28.16;48.44
80504;BME280;69825;51.190;6.808;2023-09-18T03:49:27;100133.09;;;28.21;48.33
80504;BME280;69825;51.190;6.808;2023-09-18T03:51:52;100152.75;;;28.20;48.13
80504;BME280;69825;51.190;6.808;2023-09-18T03:54:17;100143.94;;;28.23;48.40
80504;BME280;69825;51.190;6.808;2023-09-18T03:56:43;100147.75;;;28.17;48.31
80504;BME280;69825;51.190;6.808;2023-09-18T03:59:08;100163.34;;;28.23;48.16
80504;BME280;69825;51.190;6.808;2023-09-18T04:01:33;100145.03;;;28.22;48.33
80504;BME280;69825;51.190;6.808;2023-09-18T04:03:59;100135.59;;;28.23;48.09
80504;BME280;69825;51.190;6.808;2023-09-18T04:06:30;100121.72;;;28.23;48.28
80504;BME280;69825;51.190;6.808;2023-09-18T04:09:00;100130.06;;;28.23;48.35
80504;BME280;69825;51.190;6.808;2023-09-18T04:11:25;100133.91;;;28.22;48.38
80504;BME280;69825;51.190;6.808;2023-09-18T04:13:51;100136.09;;;28.15;48.14
80504;BME280;69825;51.190;6.808;2023-09-18T04:16:17;100157.22;;;28.21;48.28
80504;BME280;69825;51.190;6.808;2023-09-18T04:18:42;100149.13;;;28.14;48.40
80504;BME280;69825;51.190;6.808;2023-09-18T04:21:08;100137.16;;;28.14;48.49
80504;BME280;69825;51.190;6.808;2023-09-18T04:23:35;100142.25;;;28.22;48.36
80504;BME280;69825;51.190;6.808;2023-09-18T04:26:01;100139.47;;;28.22;48.32
80504;BME280;69825;51.190;6.808;2023-09-18T04:28:27;100137.78;;;28.21;48.15
80504;BME280;69825;51.190;6.808;2023-09-18T04:30:52;100138.88;;;28.20;48.37
80504;BME280;69825;51.190;6.808;2023-09-18T04:33:18;100147.22;;;28.20;48.61
80504;BME280;69825;51.190;6.808;2023-09-18T04:35:44;100143.88;;;28.18;48.73
80504;BME280;69825;51.190;6.808;2023-09-18T04:38:09;100151.63;;;28.16;48.18
80504;BME280;69825;51.190;6.808;2023-09-18T04:40:37;100147.00;;;28.00;48.85
80504;BME280;69825;51.190;6.808;2023-09-18T04:43:02;100145.66;;;28.02;48.84
80504;BME280;69825;51.190;6.808;2023-09-18T04:45:31;100145.94;;;28.06;48.81
80504;BME280;69825;51.190;6.808;2023-09-18T04:47:57;100152.03;;;28.03;48.83
80504;BME280;69825;51.190;6.808;2023-09-18T04:50:22;100139.69;;;27.88;48.91
80504;BME280;69825;51.190;6.808;2023-09-18T04:52:48;100156.97;;;27.96;49.06
80504;BME280;69825;51.190;6.808;2023-09-18T04:55:13;100139.38;;;27.85;48.88
80504;BME280;69825;51.190;6.808;2023-09-18T04:57:39;100154.19;;;27.96;49.13
80504;BME280;69825;51.190;6.808;2023-09-18T05:00:05;100112.88;;;27.67;48.92
80504;BME280;69825;51.190;6.808;2023-09-18T05:02:33;100161.91;;;27.94;49.16
80504;BME280;69825;51.190;6.808;2023-09-18T05:04:59;100163.03;;;27.92;49.08
80504;BME280;69825;51.190;6.808;2023-09-18T05:07:25;100163.03;;;27.92;48.98
80504;BME280;69825;51.190;6.808;2023-09-18T05:09:51;100159.41;;;27.92;49.11
80504;BME280;69825;51.190;6.808;2023-09-18T05:12:16;100153.31;;;27.90;49.11
80504;BME280;69825;51.190;6.808;2023-09-18T05:14:42;100164.41;;;27.90;48.98
80504;BME280;69825;51.190;6.808;2023-09-18T05:17:15;100159.09;;;27.88;49.14
80504;BME280;69825;51.190;6.808;2023-09-18T05:19:41;100131.81;;;27.75;49.31
80504;BME280;69825;51.190;6.808;2023-09-18T05:22:07;100139.94;;;27.87;49.60
80504;BME280;69825;51.190;6.808;2023-09-18T05:24:33;100147.38;;;27.81;49.44
80504;BME280;69825;51.190;6.808;2023-09-18T05:26:58;100151.84;;;27.82;49.43
80504;BME280;69825;51.190;6.808;2023-09-18T05:29:24;100142.44;;;27.83;49.51
80504;BME280;69825;51.190;6.808;2023-09-18T05:31:49;100136.03;;;27.83;49.59
80504;BME280;69825;51.190;6.808;2023-09-18T05:34:14;100138.22;;;27.81;49.67
80504;BME280;69825;51.190;6.808;2023-09-18T05:36:40;100138.47;;;27.79;49.70
80504;BME280;69825;51.190;6.808;2023-09-18T05:39:06;100141.25;;;27.79;49.61
80504;BME280;69825;51.190;6.808;2023-09-18T05:41:35;100143.44;;;27.77;49.60
80504;BME280;69825;51.190;6.808;2023-09-18T05:44:00;100162.84;;;27.77;49.58
80504;BME280;69825;51.190;6.808;2023-09-18T05:46:29;100177.25;;;27.74;49.64
80504;BME280;69825;51.190;6.808;2023-09-18T05:48:54;100191.63;;;27.71;49.59
80504;BME280;69825;51.190;6.808;2023-09-18T05:51:22;100193.25;;;27.67;49.69
80504;BME280;69825;51.190;6.808;2023-09-18T05:53:47;100194.88;;;27.63;49.90
80504;BME280;69825;51.190;6.808;2023-09-18T05:56:13;100168.13;;;27.52;49.80
80504;BME280;69825;51.190;6.808;2023-09-18T05:58:39;100176.19;;;27.54;50.15
80504;BME280;69825;51.190;6.808;2023-09-18T06:01:05;100175.25;;;27.48;50.15
80504;BME280;69825;51.190;6.808;2023-09-18T06:03:30;100179.91;;;27.42;50.12
80504;BME280;69825;51.190;6.808;2023-09-18T06:06:01;100177.91;;;27.38;50.26
80504;BME280;69825;51.190;6.808;2023-09-18T06:08:26;100182.78;;;27.31;50.50
80504;BME280;69825;51.190;6.808;2023-09-18T06:10:52;100169.41;;;27.23;50.66
80504;BME280;69825;51.190;6.808;2023-09-18T06:13:17;100165.81;;;27.22;50.65
80504;BME280;69825;51.190;6.808;2023-09-18T06:15:42;100168.78;;;27.16;50.84
80504;BME280;69825;51.190;6.808;2023-09-18T06:18:07;100188.41;;;27.14;50.55
80504;BME280;69825;51.190;6.808;2023-09-18T06:20:33;100199.44;;;27.09;50.50
80504;BME280;69825;51.190;6.808;2023-09-18T06:22:58;100203.78;;;27.05;50.80
80504;BME280;69825;51.190;6.808;2023-09-18T06:25:24;100207.06;;;27.02;50.86
80504;BME280;69825;51.190;6.808;2023-09-18T06:27:49;100199.50;;;26.97;50.82
80504;BME280;69825;51.190;6.808;2023-09-18T06:30:15;100188.97;;;26.94;50.83
80504;BME280;69825;51.190;6.808;2023-09-18T06:32:40;100188.38;;;26.92;50.96
80504;BME280;69825;51.190;6.808;2023-09-18T06:35:08;100182.47;;;26.89;51.16
80504;BME280;69825;51.190;6.808;2023-09-18T06:37:33;100186.59;;;26.86;50.80
80504;BME280;69825;51.190;6.808;2023-09-18T06:39:59;100195.41;;;26.83;50.87
80504;BME280;69825;51.190;6.808;2023-09-18T06:42:24;100199.53;;;26.81;50.82
80504;BME280;69825;51.190;6.808;2023-09-18T06:44:49;100210.84;;;26.79;50.81
80504;BME280;69825;51.190;6.808;2023-09-18T06:47:15;100213.88;;;26.78;51.07
80504;BME280;69825;51.190;6.808;2023-09-18T06:49:41;100204.97;;;26.75;51.15
80504;BME280;69825;51.190;6.808;2023-09-18T06:52:07;100206.34;;;26.73;51.06
80504;BME280;69825;51.190;6.808;2023-09-18T06:54:32;100216.81;;;26.71;50.99
80504;BME280;69825;51.190;6.808;2023-09-18T06:56:58;100211.78;;;26.68;51.06
80504;BME280;69825;51.190;6.808;2023-09-18T06:59:23;100214.28;;;26.69;50.96
80504;BME280;69825;51.190;6.808;2023-09-18T07:01:49;100215.66;;;26.67;50.92
80504;BME280;69825;51.190;6.808;2023-09-18T07:04:14;100212.88;;;26.67;50.95
80504;BME280;69825;51.190;6.808;2023-09-18T07:06:39;100213.13;;;26.65;50.88
80504;BME280;69825;51.190;6.808;2023-09-18T07:09:05;100212.28;;;26.65;50.80
80504;BME280;69825;51.190;6.808;2023-09-18T07:11:32;100214.22;;;26.64;51.01
80504;BME280;69825;51.190;6.808;2023-09-18T07:13:58;100225.53;;;26.63;51.06
80504;BME280;69825;51.190;6.808;2023-09-18T07:16:23;100222.19;;;26.61;51.26
80504;BME280;69825;51.190;6.808;2023-09-18T07:18:49;100223.84;;;26.62;50.83
80504;BME280;69825;51.190;6.808;2023-09-18T07:21:15;100229.72;;;26.65;51.09
80504;BME280;69825;51.190;6.808;2023-09-18T07:23:40;100248.88;;;26.67;51.16
80504;BME280;69825;51.190;6.808;2023-09-18T07:26:06;100259.94;;;26.67;51.08
80504;BME280;69825;51.190;6.808;2023-09-18T07:28:31;100263.53;;;26.67;51.21
80504;BME280;69825;51.190;6.808;2023-09-18T07:30:57;100259.09;;;26.66;51.20
80504;BME280;69825;51.190;6.808;2023-09-18T07:33:22;100259.09;;;26.66;50.91
80504;BME280;69825;51.190;6.808;2023-09-18T07:35:48;100267.63;;;26.65;51.07
80504;BME280;69825;51.190;6.808;2023-09-18T07:38:14;100262.09;;;26.65;51.01
80504;BME280;69825;51.190;6.808;2023-09-18T07:40:40;100256.81;;;26.63;51.00
80504;BME280;69825;51.190;6.808;2023-09-18T07:43:05;100272.34;;;26.64;51.35
80504;BME280;69825;51.190;6.808;2023-09-18T07:45:31;100271.50;;;26.64;51.01
80504;BME280;69825;51.190;6.808;2023-09-18T07:47:56;100270.41;;;26.65;50.94
80504;BME280;69825;51.190;6.808;2023-09-18T07:50:21;100288.09;;;26.64;51.05
80504;BME280;69825;51.190;6.808;2023-09-18T07:52:47;100292.78;;;26.63;50.94
80504;BME280;69825;51.190;6.808;2023-09-18T07:55:12;100292.78;;;26.63;51.23
80504;BME280;69825;51.190;6.808;2023-09-18T07:57:38;100307.47;;;26.64;50.59
80504;BME280;69825;51.190;6.808;2023-09-18T08:00:04;100299.16;;;26.64;51.07
80504;BME280;69825;51.190;6.808;2023-09-18T08:02:37;100286.19;;;26.64;51.03
80504;BME280;69825;51.190;6.808;2023-09-18T08:05:04;100265.28;;;26.57;51.17
80504;BME280;69825;51.190;6.808;2023-09-18T08:07:30;100263.59;;;26.56;51.03
80504;BME280;69825;51.190;6.808;2023-09-18T08:09:55;100297.50;;;26.63;50.75
80504;BME280;69825;51.190;6.808;2023-09-18T08:12:21;100275.44;;;26.51;50.64
80504;BME280;69825;51.190;6.808;2023-09-18T08:14:46;100304.09;;;26.62;50.86
80504;BME280;69825;51.190;6.808;2023-09-18T08:17:13;100310.47;;;26.62;50.85
80504;BME280;69825;51.190;6.808;2023-09-18T08:19:39;100301.34;;;26.62;50.59
80504;BME280;69825;51.190;6.808;2023-09-18T08:22:05;100310.75;;;26.61;50.34
80504;BME280;69825;51.190;6.808;2023-09-18T08:24:30;100299.94;;;26.59;50.58
80504;BME280;69825;51.190;6.808;2023-09-18T08:26:55;100305.72;;;26.58;50.53
80504;BME280;69825;51.190;6.808;2023-09-18T08:29:22;100279.69;;;26.42;50.58
80504;BME280;69825;51.190;6.808;2023-09-18T08:31:47;100302.34;;;26.56;50.30
80504;BME280;69825;51.190;6.808;2023-09-18T08:34:13;100299.84;;;26.54;50.78
80504;BME280;69825;51.190;6.808;2023-09-18T08:36:39;100302.88;;;26.53;50.73
80504;BME280;69825;51.190;6.808;2023-09-18T08:39:05;100306.72;;;26.52;50.28
80504;BME280;69825;51.190;6.808;2023-09-18T08:41:31;100304.19;;;26.50;50.76
80504;BME280;69825;51.190;6.808;2023-09-18T08:44:02;100304.44;;;26.49;50.54
80504;BME280;69825;51.190;6.808;2023-09-18T08:46:29;100307.19;;;26.49;50.22
80504;BME280;69825;51.190;6.808;2023-09-18T08:48:55;100307.72;;;26.46;50.54
80504;BME280;69825;51.190;6.808;2023-09-18T08:51:22;100298.31;;;26.47;50.59
80504;BME280;69825;51.190;6.808;2023-09-18T08:53:48;100307.72;;;26.46;50.57
80504;BME280;69825;51.190;6.808;2023-09-18T08:56:14;100314.34;;;26.45;50.23
80504;BME280;69825;51.190;6.808;2023-09-18T08:58:41;100312.66;;;26.44;50.62
80504;BME280;69825;51.190;6.808;2023-09-18T09:01:11;100320.34;;;26.42;50.17
80504;BME280;69825;51.190;6.808;2023-09-18T09:03:40;100317.59;;;26.42;50.39
80504;BME280;69825;51.190;6.808;2023-09-18T09:06:08;100318.41;;;26.42;50.31
80504;BME280;69825;51.190;6.808;2023-09-18T09:08:34;100316.75;;;26.41;50.16
80504;BME280;69825;51.190;6.808;2023-09-18T09:11:00;100313.16;;;26.41;50.09
80504;BME280;69825;51.190;6.808;2023-09-18T09:13:26;100300.13;;;26.41;50.25
80504;BME280;69825;51.190;6.808;2023-09-18T09:15:53;100313.16;;;26.41;50.24
80504;BME280;69825;51.190;6.808;2023-09-18T09:18:22;100302.56;;;26.38;49.97
80504;BME280;69825;51.190;6.808;2023-09-18T09:20:58;100307.88;;;26.39;49.76
80504;BME280;69825;51.190;6.808;2023-09-18T09:23:29;100302.91;;;26.41;50.00
80504;BME280;69825;51.190;6.808;2023-09-18T09:26:13;100301.50;;;26.39;50.01
80504;BME280;69825;51.190;6.808;2023-09-18T09:28:38;100298.22;;;26.42;49.75
80504;BME280;69825;51.190;6.808;2023-09-18T09:31:04;100310.97;;;26.43;49.81
80504;BME280;69825;51.190;6.808;2023-09-18T09:33:31;100318.19;;;26.44;50.03
80504;BME280;69825;51.190;6.808;2023-09-18T09:35:57;100322.88;;;26.43;49.93
80504;BME280;69825;51.190;6.808;2023-09-18T09:38:30;100318.56;;;26.35;49.83
80504;BME280;69825;51.190;6.808;2023-09-18T09:41:02;100326.47;;;26.44;49.77
80504;BME280;69825;51.190;6.808;2023-09-18T09:43:31;100317.09;;;26.45;49.68
80504;BME280;69825;51.190;6.808;2023-09-18T09:45:58;100315.41;;;26.44;49.19
80504;BME280;69825;51.190;6.808;2023-09-18T09:48:24;100298.03;;;26.31;49.11
80504;BME280;69825;51.190;6.808;2023-09-18T09:50:50;100309.88;;;26.44;49.19
80504;BME280;69825;51.190;6.808;2023-09-18T09:53:17;100315.41;;;26.44;49.53
80504;BME280;69825;51.190;6.808;2023-09-18T09:55:43;100303.66;;;26.37;49.28
80504;BME280;69825;51.190;6.808;2023-09-18T09:58:10;100311.56;;;26.45;49.37
80504;BME280;69825;51.190;6.808;2023-09-18T10:00:43;100313.25;;;26.46;49.28
80504;BME280;69825;51.190;6.808;2023-09-18T10:03:10;100306.63;;;26.47;49.43
80504;BME280;69825;51.190;6.808;2023-09-18T10:05:38;100312.72;;;26.49;49.13
80504;BME280;69825;51.190;6.808;2023-09-18T10:08:07;100312.50;;;26.50;49.38
80504;BME280;69825;51.190;6.808;2023-09-18T10:10:36;100306.72;;;26.52;49.63
80504;BME280;69825;51.190;6.808;2023-09-18T10:13:07;100301.78;;;26.54;49.11
80504;BME280;69825;51.190;6.808;2023-09-18T10:15:35;100304.88;;;26.57;49.39
80504;BME280;69825;51.190;6.808;2023-09-18T10:18:05;100284.56;;;26.52;49.26
80504;BME280;69825;51.190;6.808;2023-09-18T10:20:33;100295.81;;;26.62;49.25
80504;BME280;69825;51.190;6.808;2023-09-18T10:23:02;100288.69;;;26.66;49.09
80504;BME280;69825;51.190;6.808;2023-09-18T10:25:31;100286.41;;;26.63;49.05
80504;BME280;69825;51.190;6.808;2023-09-18T10:27:57;100292.13;;;26.73;49.21
80504;BME280;69825;51.190;6.808;2023-09-18T10:30:27;100295.22;;;26.77;49.18
80504;BME280;69825;51.190;6.808;2023-09-18T10:32:56;100288.97;;;26.81;49.07
80504;BME280;69825;51.190;6.808;2023-09-18T10:35:23;100298.44;;;26.85;48.96
80504;BME280;69825;51.190;6.808;2023-09-18T10:37:49;100278.56;;;26.88;48.92
80504;BME280;69825;51.190;6.808;2023-09-18T10:40:17;100291.66;;;26.93;48.63
80504;BME280;69825;51.190;6.808;2023-09-18T10:42:42;100299.22;;;26.97;48.50
80504;BME280;69825;51.190;6.808;2023-09-18T10:45:10;100295.69;;;27.02;48.71
80504;BME280;69825;51.190;6.808;2023-09-18T10:47:38;100305.16;;;27.06;48.26
80504;BME280;69825;51.190;6.808;2023-09-18T10:50:05;100309.94;;;27.10;48.47
80504;BME280;69825;51.190;6.808;2023-09-18T10:52:32;100303.91;;;27.13;48.30
80504;BME280;69825;51.190;6.808;2023-09-18T10:54:58;100299.44;;;27.12;48.29
80504;BME280;69825;51.190;6.808;2023-09-18T10:57:23;100313.47;;;27.23;48.34
80504;BME280;69825;51.190;6.808;2023-09-18T10:59:49;100314.63;;;27.27;48.19
80504;BME280;69825;51.190;6.808;2023-09-18T11:02:15;100314.09;;;27.30;47.95
80504;BME280;69825;51.190;6.808;2023-09-18T11:04:42;100316.97;;;27.35;47.83
80504;BME280;69825;51.190;6.808;2023-09-18T11:07:08;100315.13;;;27.40;47.98
80504;BME280;69825;51.190;6.808;2023-09-18T11:09:44;100324.03;;;27.42;47.81
80504;BME280;69825;51.190;6.808;2023-09-18T11:12:11;100307.22;;;27.49;47.92
80504;BME280;69825;51.190;6.808;2023-09-18T11:17:32;100316.22;;;27.56;47.72
80504;BME280;69825;51.190;6.808;2023-09-18T11:22:27;100304.16;;;27.67;47.16
80504;BME280;69825;51.190;6.808;2023-09-18T11:24:53;100298.34;;;27.69;46.81
80504;BME280;69825;51.190;6.808;2023-09-18T11:27:24;100297.56;;;27.73;46.90
80504;BME280;69825;51.190;6.808;2023-09-18T11:29:51;100302.09;;;27.79;46.43
80504;BME280;69825;51.190;6.808;2023-09-18T11:32:37;100297.38;;;27.80;46.70
80504;BME280;69825;51.190;6.808;2023-09-18T11:35:08;100304.41;;;27.87;46.31
80504;BME280;69825;51.190;6.808;2023-09-18T11:37:35;100304.16;;;27.89;46.11
80504;BME280;69825;51.190;6.808;2023-09-18T11:40:01;100316.66;;;27.91;46.01
80504;BME280;69825;51.190;6.808;2023-09-18T11:42:26;100316.66;;;27.91;45.65
80504;BME280;69825;51.190;6.808;2023-09-18T11:44:53;100320.84;;;27.94;45.61
80504;BME280;69825;51.190;6.808;2023-09-18T11:47:23;100316.75;;;27.97;45.52
80504;BME280;69825;51.190;6.808;2023-09-18T11:49:54;100311.25;;;28.02;45.58
80504;BME280;69825;51.190;6.808;2023-09-18T11:52:22;100292.41;;;28.04;45.44
80504;BME280;69825;51.190;6.808;2023-09-18T11:54:48;100291.38;;;28.10;45.48
80504;BME280;69825;51.190;6.808;2023-09-18T11:57:15;100299.16;;;28.13;45.58
80504;BME280;69825;51.190;6.808;2023-09-18T11:59:41;100283.13;;;28.15;45.30
80504;BME280;69825;51.190;6.808;2023-09-18T12:02:17;100285.09;;;28.19;45.31
80504;BME280;69825;51.190;6.808;2023-09-18T12:04:53;100293.50;;;28.24;45.32
80504;BME280;69825;51.190;6.808;2023-09-18T12:07:18;100288.25;;;28.28;45.00
80504;BME280;69825;51.190;6.808;2023-09-18T12:09:44;100277.16;;;28.28;44.59
80504;BME280;69825;51.190;6.808;2023-09-18T12:12:11;100279.97;;;28.33;45.13
80504;BME280;69825;51.190;6.808;2023-09-18T12:14:39;100277.28;;;28.38;45.07
80504;BME280;69825;51.190;6.808;2023-09-18T12:17:07;100282.28;;;28.41;44.70
80504;BME280;69825;51.190;6.808;2023-09-18T12:19:33;100281.78;;;28.44;44.82
80504;BME280;69825;51.190;6.808;2023-09-18T12:22:00;100275.69;;;28.47;44.38
80504;BME280;69825;51.190;6.808;2023-09-18T12:24:26;100288.78;;;28.52;44.61
80504;BME280;69825;51.190;6.808;2023-09-18T12:26:53;100275.47;;;28.54;44.40
80504;BME280;69825;51.190;6.808;2023-09-18T12:29:20;100287.41;;;28.54;44.66
80504;BME280;69825;51.190;6.808;2023-09-18T12:31:45;100256.25;;;28.47;44.29
80504;BME280;69825;51.190;6.808;2023-09-18T12:34:18;100257.66;;;28.50;44.58
80504;BME280;69825;51.190;6.808;2023-09-18T12:36:45;100278.09;;;28.65;44.37
80504;BME280;69825;51.190;6.808;2023-09-18T12:39:14;100268.94;;;28.70;44.17
80504;BME280;69825;51.190;6.808;2023-09-18T12:41:44;100275.94;;;28.73;43.97
80504;BME280;69825;51.190;6.808;2023-09-18T12:44:09;100278.69;;;28.73;43.90
80504;BME280;69825;51.190;6.808;2023-09-18T12:46:36;100263.69;;;28.74;43.59
80504;BME280;69825;51.190;6.808;2023-09-18T12:49:35;100263.69;;;28.74;43.66
80504;BME280;69825;51.190;6.808;2023-09-18T12:52:01;100265.50;;;28.85;42.82
80504;BME280;69825;51.190;6.808;2023-09-18T12:54:38;100263.28;;;28.87;42.78